sensor_id;sensor_type;location;lat;lon;timestamp;pressure;altitude;pressure_sealevel;temperature;humidity
48800;BME280;34611;47.964;7.982;2023-02-04T00:03:16;98249.28;;;9.73;57.66
48800;BME280;34611;47.964;7.982;2023-02-04T00:10:17;98263.16;;;9.72;57.55
48800;BME280;34611;47.964;7.982;2023-02-04T00:17:17;98244.06;;;9.73;57.72
48800;BME280;34611;47.964;7.982;2023-02-04T00:24:18;98243.34;;;9.71;57.54
48800;BME280;34611;47.964;7.982;2023-02-04T00:31:18;98241.56;;;9.72;57.61
48800;BME280;34611;47.964;7.982;2023-02-04T00:38:18;98236.28;;;9.73;57.84
48800;BME280;34611;47.964;7.982;2023-02-04T00:45:20;98236.28;;;9.73;57.83
48800;BME280;34611;47.964;7.982;2023-02-04T00:52:20;98220.72;;;9.73;58.09
48800;BME280;34611;47.964;7.982;2023-02-04T00:59:20;98216.41;;;9.72;57.70
48800;BME280;34611;47.964;7.982;2023-02-04T01:06:20;98223.31;;;9.73;57.81
48800;BME280;34611;47.964;7.982;2023-02-04T01:13:21;98224.13;;;9.74;57.98
48800;BME280;34611;47.964;7.982;2023-02-04T01:20:21;98240.53;;;9.75;57.66
48800;BME280;34611;47.964;7.982;2023-02-04T01:27:22;98231.91;;;9.74;57.87
48800;BME280;34611;47.964;7.982;2023-02-04T01:34:22;98235.34;;;9.75;57.87
48800;BME280;34611;47.964;7.982;2023-02-04T01:41:25;98232.75;;;9.75;57.81
48800;BME280;34611;47.964;7.982;2023-02-04T01:48:25;98231.09;;;9.73;58.00
48800;BME280;34611;47.964;7.982;2023-02-04T01:55:27;98245.72;;;9.75;57.89
48800;BME280;34611;47.964;7.982;2023-02-04T02:02:47;98239.63;;;9.76;57.93
48800;BME280;34611;47.964;7.982;2023-02-04T02:09:49;98235.34;;;9.75;58.09
48800;BME280;34611;47.964;7.982;2023-02-04T02:16:49;98231.91;;;9.74;58.06
48800;BME280;34611;47.964;7.982;2023-02-04T02:23:53;98232.66;;;9.76;58.06
48800;BME280;34611;47.964;7.982;2023-02-04T02:30:58;98225.81;;;9.75;57.93
48800;BME280;34611;47.964;7.982;2023-02-04T02:37:58;98215.44;;;9.75;58.07
48800;BME280;34611;47.964;7.982;2023-02-04T02:44:59;98211.97;;;9.75;58.17
48800;BME280;34611;47.964;7.982;2023-02-04T02:51:59;98200.69;;;9.76;57.92
48800;BME280;34611;47.964;7.982;2023-02-04T02:59:33;98195.47;;;9.76;58.03
48800;BME280;34611;47.964;7.982;2023-02-04T03:06:26;98211.88;;;9.76;58.20
48800;BME280;34611;47.964;7.982;2023-02-04T03:13:27;98203.28;;;9.76;58.23
48800;BME280;34611;47.964;7.982;2023-02-04T03:20:30;98211.06;;;9.76;57.97
48800;BME280;34611;47.964;7.982;2023-02-04T03:27:32;98218.03;;;9.75;58.28
48800;BME280;34611;47.964;7.982;2023-02-04T03:34:32;98217.09;;;9.76;58.22
48800;BME280;34611;47.964;7.982;2023-02-04T03:41:32;98232.66;;;9.76;58.21
48800;BME280;34611;47.964;7.982;2023-02-04T03:48:33;98201.50;;;9.76;58.24
48800;BME280;34611;47.964;7.982;2023-02-04T03:55:33;98211.88;;;9.76;58.28
48800;BME280;34611;47.964;7.982;2023-02-04T04:02:33;98218.78;;;9.77;58.14
48800;BME280;34611;47.964;7.982;2023-02-04T04:09:33;98214.41;;;9.78;58.19
48800;BME280;34611;47.964;7.982;2023-02-04T04:16:34;98224.78;;;9.78;58.36
48800;BME280;34611;47.964;7.982;2023-02-04T04:23:34;98230.00;;;9.78;58.23
48800;BME280;34611;47.964;7.982;2023-02-04T04:30:34;98224.78;;;9.78;58.23
48800;BME280;34611;47.964;7.982;2023-02-04T04:37:34;98222.28;;;9.76;58.24
48800;BME280;34611;47.964;7.982;2023-02-04T04:44:35;98229.16;;;9.77;58.37
48800;BME280;34611;47.964;7.982;2023-02-04T04:51:35;98230.91;;;9.77;58.37
48800;BME280;34611;47.964;7.982;2023-02-04T04:58:35;98233.41;;;9.78;58.40
48800;BME280;34611;47.964;7.982;2023-02-04T05:05:35;98226.56;;;9.77;58.41
48800;BME280;34611;47.964;7.982;2023-02-04T05:12:39;98222.19;;;9.78;58.36
48800;BME280;34611;47.964;7.982;2023-02-04T05:19:39;98231.56;;;9.80;58.38
48800;BME280;34611;47.964;7.982;2023-02-04T05:26:40;98230.81;;;9.78;58.55
48800;BME280;34611;47.964;7.982;2023-02-04T05:33:40;98236.84;;;9.79;58.51
48800;BME280;34611;47.964;7.982;2023-02-04T05:40:40;98235.19;;;9.78;58.34
48800;BME280;34611;47.964;7.982;2023-02-04T05:47:41;98239.44;;;9.79;58.49
48800;BME280;34611;47.964;7.982;2023-02-04T05:54:41;98234.25;;;9.79;58.39
48800;BME280;34611;47.964;7.982;2023-02-04T06:01:42;98234.25;;;9.79;58.43
48800;BME280;34611;47.964;7.982;2023-02-04T06:08:42;98242.03;;;9.79;58.62
48800;BME280;34611;47.964;7.982;2023-02-04T06:15:42;98247.22;;;9.79;58.42
48800;BME280;34611;47.964;7.982;2023-02-04T06:22:42;98265.41;;;9.79;58.42
48800;BME280;34611;47.964;7.982;2023-02-04T06:29:43;98262.81;;;9.79;58.59
48800;BME280;34611;47.964;7.982;2023-02-04T06:36:43;98268.00;;;9.79;58.62
48800;BME280;34611;47.964;7.982;2023-02-04T06:43:43;98267.91;;;9.80;58.68
48800;BME280;34611;47.964;7.982;2023-02-04T06:50:43;98270.53;;;9.80;58.48
48800;BME280;34611;47.964;7.982;2023-02-04T06:57:44;98281.84;;;9.79;58.71
48800;BME280;34611;47.964;7.982;2023-02-04T07:04:44;98283.59;;;9.79;58.73
48800;BME280;34611;47.964;7.982;2023-02-04T07:11:44;98291.38;;;9.79;58.66
48800;BME280;34611;47.964;7.982;2023-02-04T07:18:45;98293.97;;;9.79;58.65
48800;BME280;34611;47.964;7.982;2023-02-04T07:25:45;98304.19;;;9.82;58.62
48800;BME280;34611;47.964;7.982;2023-02-04T07:32:45;98308.56;;;9.81;58.63
48800;BME280;34611;47.964;7.982;2023-02-04T07:39:45;98309.47;;;9.80;58.81
48800;BME280;34611;47.964;7.982;2023-02-04T07:46:46;98311.16;;;9.81;58.74
48800;BME280;34611;47.964;7.982;2023-02-04T07:53:46;98310.31;;;9.81;58.91
48800;BME280;34611;47.964;7.982;2023-02-04T08:00:46;98322.47;;;9.80;58.56
48800;BME280;34611;47.964;7.982;2023-02-04T08:07:47;98334.53;;;9.81;58.81
48800;BME280;34611;47.964;7.982;2023-02-04T08:14:47;98344.06;;;9.81;58.82
48800;BME280;34611;47.964;7.982;2023-02-04T08:21:48;98336.38;;;9.79;58.95
48800;BME280;34611;47.964;7.982;2023-02-04T08:28:48;98336.28;;;9.81;58.86
48800;BME280;34611;47.964;7.982;2023-02-04T08:35:49;98344.94;;;9.81;58.83
48800;BME280;34611;47.964;7.982;2023-02-04T08:42:49;98347.41;;;9.83;58.80
48800;BME280;34611;47.964;7.982;2023-02-04T08:49:49;98344.94;;;9.81;58.96
48800;BME280;34611;47.964;7.982;2023-02-04T08:56:50;98356.16;;;9.82;58.84
48800;BME280;34611;47.964;7.982;2023-02-04T09:03:50;98355.31;;;9.81;58.74
48800;BME280;34611;47.964;7.982;2023-02-04T09:10:50;98367.38;;;9.82;58.88
48800;BME280;34611;47.964;7.982;2023-02-04T09:17:50;98382.94;;;9.82;58.80
48800;BME280;34611;47.964;7.982;2023-02-04T09:24:53;98382.94;;;9.82;58.90
48800;BME280;34611;47.964;7.982;2023-02-04T09:31:53;98376.91;;;9.82;59.04
48800;BME280;34611;47.964;7.982;2023-02-04T09:38:53;98405.41;;;9.83;59.00
48800;BME280;34611;47.964;7.982;2023-02-04T09:45:54;98403.72;;;9.82;59.12
48800;BME280;34611;47.964;7.982;2023-02-04T09:52:55;98415.81;;;9.83;58.92
48800;BME280;34611;47.964;7.982;2023-02-04T09:59:56;98421.81;;;9.84;59.12
48800;BME280;34611;47.964;7.982;2023-02-04T10:06:57;98424.41;;;9.84;58.99
48800;BME280;34611;47.964;7.982;2023-02-04T10:13:58;98431.28;;;9.85;59.14
48800;BME280;34611;47.964;7.982;2023-02-04T10:21:00;98421.81;;;9.84;59.03
48800;BME280;34611;47.964;7.982;2023-02-04T10:28:07;98427.84;;;9.84;59.14
48800;BME280;34611;47.964;7.982;2023-02-04T10:35:11;98413.09;;;9.85;59.03
48800;BME280;34611;47.964;7.982;2023-02-04T10:42:18;98414.03;;;9.84;59.08
48800;BME280;34611;47.964;7.982;2023-02-04T10:49:20;98403.53;;;9.85;59.32
48800;BME280;34611;47.964;7.982;2023-02-04T10:56:21;98404.47;;;9.84;59.32
48800;BME280;34611;47.964;7.982;2023-02-04T11:03:23;98413.94;;;9.85;59.27
48800;BME280;34611;47.964;7.982;2023-02-04T11:10:26;98413.00;;;9.86;59.49
48800;BME280;34611;47.964;7.982;2023-02-04T11:24:44;98410.41;;;9.86;59.44
48800;BME280;34611;47.964;7.982;2023-02-04T11:38:48;98410.41;;;9.86;59.57
48800;BME280;34611;47.964;7.982;2023-02-04T11:45:58;98408.66;;;9.87;59.68
48800;BME280;34611;47.964;7.982;2023-02-04T11:53:00;98419.88;;;9.87;59.53
48800;BME280;34611;47.964;7.982;2023-02-04T12:00:03;98416.44;;;9.87;59.58
48800;BME280;34611;47.964;7.982;2023-02-04T12:07:05;98407.00;;;9.86;59.42
48800;BME280;34611;47.964;7.982;2023-02-04T12:14:06;98406.06;;;9.87;59.54
48800;BME280;34611;47.964;7.982;2023-02-04T12:21:08;98404.28;;;9.87;59.55
48800;BME280;34611;47.964;7.982;2023-02-04T12:28:08;98413.00;;;9.86;59.66
48800;BME280;34611;47.964;7.982;2023-02-04T12:35:08;98422.47;;;9.87;59.29
48800;BME280;34611;47.964;7.982;2023-02-04T12:42:08;98415.53;;;9.88;59.59
48800;BME280;34611;47.964;7.982;2023-02-04T12:49:09;98416.44;;;9.87;59.48
48800;BME280;34611;47.964;7.982;2023-02-04T12:56:09;98416.44;;;9.87;59.53
48800;BME280;34611;47.964;7.982;2023-02-04T13:03:09;98424.16;;;9.88;59.46
48800;BME280;34611;47.964;7.982;2023-02-04T13:10:10;98431.94;;;9.88;59.57
48800;BME280;34611;47.964;7.982;2023-02-04T13:17:10;98434.56;;;9.88;59.48
48800;BME280;34611;47.964;7.982;2023-02-04T13:24:10;98428.53;;;9.88;59.61
48800;BME280;34611;47.964;7.982;2023-02-04T13:31:11;98429.34;;;9.88;59.76
48800;BME280;34611;47.964;7.982;2023-02-04T13:38:11;98433.72;;;9.88;59.60
48800;BME280;34611;47.964;7.982;2023-02-04T13:45:11;98444.09;;;9.88;59.79
48800;BME280;34611;47.964;7.982;2023-02-04T13:52:11;98446.72;;;9.88;59.66
48800;BME280;34611;47.964;7.982;2023-02-04T13:59:12;98450.13;;;9.88;59.74
48800;BME280;34611;47.964;7.982;2023-02-04T14:06:12;98443.16;;;9.89;59.59
48800;BME280;34611;47.964;7.982;2023-02-04T14:13:14;98462.19;;;9.89;59.53
48800;BME280;34611;47.964;7.982;2023-02-04T14:20:14;98475.16;;;9.89;59.75
48800;BME280;34611;47.964;7.982;2023-02-04T14:27:15;98483.91;;;9.88;59.57
48800;BME280;34611;47.964;7.982;2023-02-04T14:34:15;98491.63;;;9.90;59.61
48800;BME280;34611;47.964;7.982;2023-02-04T14:41:16;98479.53;;;9.89;59.83
48800;BME280;34611;47.964;7.982;2023-02-04T14:48:19;98487.25;;;9.90;59.79
48800;BME280;34611;47.964;7.982;2023-02-04T14:55:19;98488.16;;;9.89;59.56
48800;BME280;34611;47.964;7.982;2023-02-04T15:02:19;98494.09;;;9.91;59.83
48800;BME280;34611;47.964;7.982;2023-02-04T15:09:19;98495.03;;;9.90;59.74
48800;BME280;34611;47.964;7.982;2023-02-04T15:16:20;98489.03;;;9.90;59.74
48800;BME280;34611;47.964;7.982;2023-02-04T15:23:20;98488.09;;;9.91;59.66
48800;BME280;34611;47.964;7.982;2023-02-04T15:30:20;98500.25;;;9.90;59.84
48800;BME280;34611;47.964;7.982;2023-02-04T15:37:20;98497.66;;;9.90;59.89
48800;BME280;34611;47.964;7.982;2023-02-04T15:44:20;98496.81;;;9.90;59.80
48800;BME280;34611;47.964;7.982;2023-02-04T15:51:21;98502.84;;;9.90;59.83
48800;BME280;34611;47.964;7.982;2023-02-04T15:58:21;98506.28;;;9.91;59.65
48800;BME280;34611;47.964;7.982;2023-02-04T16:05:21;98510.63;;;9.90;59.70
48800;BME280;34611;47.964;7.982;2023-02-04T16:12:21;98522.78;;;9.90;59.71
48800;BME280;34611;47.964;7.982;2023-02-04T16:19:22;98511.53;;;9.89;59.69
48800;BME280;34611;47.964;7.982;2023-02-04T16:26:22;98518.44;;;9.90;59.70
48800;BME280;34611;47.964;7.982;2023-02-04T16:33:22;98512.41;;;9.90;59.74
48800;BME280;34611;47.964;7.982;2023-02-04T16:40:23;98521.03;;;9.90;59.74
48800;BME280;34611;47.964;7.982;2023-02-04T16:47:24;98527.03;;;9.91;59.70
48800;BME280;34611;47.964;7.982;2023-02-04T16:54:24;98540.03;;;9.91;59.91
48800;BME280;34611;47.964;7.982;2023-02-04T17:01:24;98540.03;;;9.91;59.75
48800;BME280;34611;47.964;7.982;2023-02-04T17:08:24;98547.81;;;9.91;59.84
48800;BME280;34611;47.964;7.982;2023-02-04T17:15:25;98547.81;;;9.91;59.81
48800;BME280;34611;47.964;7.982;2023-02-04T17:22:25;98566.84;;;9.91;59.93
48800;BME280;34611;47.964;7.982;2023-02-04T17:29:25;98570.31;;;9.92;59.99
48800;BME280;34611;47.964;7.982;2023-02-04T17:36:25;98571.13;;;9.92;59.70
48800;BME280;34611;47.964;7.982;2023-02-04T17:43:26;98569.44;;;9.91;59.97
48800;BME280;34611;47.964;7.982;2023-02-04T17:50:26;98575.50;;;9.92;59.86
48800;BME280;34611;47.964;7.982;2023-02-04T17:57:26;98573.81;;;9.91;59.84
48800;BME280;34611;47.964;7.982;2023-02-04T18:04:26;98585.03;;;9.91;59.84
48800;BME280;34611;47.964;7.982;2023-02-04T18:11:28;98588.56;;;9.90;59.92
48800;BME280;34611;47.964;7.982;2023-02-04T18:18:34;98591.09;;;9.92;59.82
48800;BME280;34611;47.964;7.982;2023-02-04T18:25:35;98590.22;;;9.91;59.78
48800;BME280;34611;47.964;7.982;2023-02-04T18:32:36;98601.47;;;9.92;59.93
48800;BME280;34611;47.964;7.982;2023-02-04T18:39:37;98600.53;;;9.93;59.91
48800;BME280;34611;47.964;7.982;2023-02-04T18:46:40;98594.50;;;9.92;59.84
48800;BME280;34611;47.964;7.982;2023-02-04T18:53:41;98598.88;;;9.92;59.85
48800;BME280;34611;47.964;7.982;2023-02-04T19:00:48;98600.63;;;9.91;60.04
48800;BME280;34611;47.964;7.982;2023-02-04T19:07:49;98610.19;;;9.91;59.85
48800;BME280;34611;47.964;7.982;2023-02-04T19:14:50;98610.19;;;9.91;59.81
48800;BME280;34611;47.964;7.982;2023-02-04T19:21:51;98623.09;;;9.92;59.92
48800;BME280;34611;47.964;7.982;2023-02-04T19:28:51;98611.00;;;9.91;60.12
48800;BME280;34611;47.964;7.982;2023-02-04T19:35:51;98612.69;;;9.92;59.84
48800;BME280;34611;47.964;7.982;2023-02-04T19:42:53;98612.78;;;9.91;60.00
48800;BME280;34611;47.964;7.982;2023-02-04T19:49:56;98599.78;;;9.91;59.96
48800;BME280;34611;47.964;7.982;2023-02-04T19:56:59;98611.88;;;9.92;59.90
48800;BME280;34611;47.964;7.982;2023-02-04T20:03:59;98610.94;;;9.93;60.03
48800;BME280;34611;47.964;7.982;2023-02-04T20:18:15;98632.66;;;9.92;59.91
48800;BME280;34611;47.964;7.982;2023-02-04T20:32:20;98642.19;;;9.91;59.91
48800;BME280;34611;47.964;7.982;2023-02-04T20:39:31;98637.84;;;9.92;60.03
48800;BME280;34611;47.964;7.982;2023-02-04T20:46:32;98640.44;;;9.92;60.01
48800;BME280;34611;47.964;7.982;2023-02-04T20:53:39;98641.28;;;9.92;59.97
48800;BME280;34611;47.964;7.982;2023-02-04T21:00:39;98662.88;;;9.93;59.96
48800;BME280;34611;47.964;7.982;2023-02-04T21:07:40;98663.81;;;9.92;59.91
48800;BME280;34611;47.964;7.982;2023-02-04T21:14:40;98656.03;;;9.92;60.00
48800;BME280;34611;47.964;7.982;2023-02-04T21:21:41;98658.63;;;9.92;60.04
48800;BME280;34611;47.964;7.982;2023-02-04T21:28:41;98657.69;;;9.93;59.87
48800;BME280;34611;47.964;7.982;2023-02-04T21:35:41;98675.03;;;9.92;59.85
48800;BME280;34611;47.964;7.982;2023-02-04T21:42:41;98671.63;;;9.92;60.06
48800;BME280;34611;47.964;7.982;2023-02-04T21:49:42;98672.44;;;9.92;60.10
48800;BME280;34611;47.964;7.982;2023-02-04T21:56:42;98679.41;;;9.92;59.80
48800;BME280;34611;47.964;7.982;2023-02-04T22:03:42;98684.50;;;9.93;59.94
48800;BME280;34611;47.964;7.982;2023-02-04T22:10:42;98679.41;;;9.92;60.06
48800;BME280;34611;47.964;7.982;2023-02-04T22:17:43;98668.16;;;9.91;59.86
48800;BME280;34611;47.964;7.982;2023-02-04T22:24:43;98673.34;;;9.91;59.94
48800;BME280;34611;47.964;7.982;2023-02-04T22:31:44;98671.63;;;9.92;60.09
48800;BME280;34611;47.964;7.982;2023-02-04T22:38:45;98663.91;;;9.90;59.94
48800;BME280;34611;47.964;7.982;2023-02-04T22:45:45;98660.38;;;9.91;59.86
48800;BME280;34611;47.964;7.982;2023-02-04T22:52:45;98665.47;;;9.93;60.03
48800;BME280;34611;47.964;7.982;2023-02-04T22:59:46;98663.81;;;9.92;60.07
48800;BME280;34611;47.964;7.982;2023-02-04T23:06:46;98663.81;;;9.92;59.83
48800;BME280;34611;47.964;7.982;2023-02-04T23:13:46;98681.06;;;9.93;59.88
48800;BME280;34611;47.964;7.982;2023-02-04T23:20:47;98685.44;;;9.92;59.91
48800;BME280;34611;47.964;7.982;2023-02-04T23:27:47;98675.03;;;9.92;59.95
48800;BME280;34611;47.964;7.982;2023-02-04T23:34:47;98669.03;;;9.92;60.13
48800;BME280;34611;47.964;7.982;2023-02-04T23:41:48;98663.81;;;9.92;60.16
48800;BME280;34611;47.964;7.982;2023-02-04T23:48:48;98669.84;;;9.92;59.99
48800;BME280;34611;47.964;7.982;2023-02-04T23:55:48;98680.25;;;9.92;59.93
